Time;durP1;ratioP1;P1;durP2;ratioP2;P2;SDS_P1;SDS_P2;PMS_P1;PMS_P2;Temp;Humidity;BMP_temperature;BMP_pressure;BME280_temperature;BME280_humidity;BME280_pressure;Samples;Min_cycle;Max_cycle;Signal;HPM_P1;HPM_P2
2022/10/21 00:01:21;;;;;;;0.00;0.00;;;6.40;99.90;;;;;;4988587;28;20253;-78
2022/10/21 00:03:51;;;;;;;0.00;0.00;;;6.40;99.90;;;;;;5000338;23;20545;-76
2022/10/21 00:06:16;;;;;;;0.00;0.00;;;6.30;99.90;;;;;;4985693;28;20053;-78
2022/10/21 00:08:42;;;;;;;0.08;0.08;;;6.30;99.90;;;;;;4989848;28;20018;-78
2022/10/21 00:11:08;;;;;;;0.00;0.00;;;6.30;99.90;;;;;;4988201;28;20122;-77
2022/10/21 00:13:39;;;;;;;0.00;0.00;;;6.30;99.90;;;;;;5002957;28;20026;-77
2022/10/21 00:16:14;;;;;;;0.08;0.08;;;6.30;99.90;;;;;;5009848;28;20078;-78
2022/10/21 00:18:42;;;;;;;0.10;0.10;;;6.30;99.90;;;;;;4990202;28;20026;-78
2022/10/21 00:21:14;;;;;;;0.08;0.08;;;6.30;99.90;;;;;;5010476;28;20062;-77
2022/10/21 00:23:40;;;;;;;0.00;0.00;;;6.30;99.90;;;;;;5009486;28;20030;-77
2022/10/21 00:26:06;;;;;;;0.20;0.20;;;6.30;99.90;;;;;;5008607;28;20027;-78
2022/10/21 00:28:34;;;;;;;0.00;0.00;;;6.20;99.90;;;;;;4979774;28;20364;-78
2022/10/21 00:31:01;;;;;;;0.00;0.00;;;6.20;99.90;;;;;;4971176;28;20043;-77
2022/10/21 00:33:27;;;;;;;0.00;0.00;;;;;;;;;;4955309;28;20325;-78
2022/10/21 00:36:04;;;;;;;0.00;0.00;;;6.20;99.90;;;;;;4974608;28;20086;-77
2022/10/21 00:38:34;;;;;;;0.10;0.10;;;6.20;99.90;;;;;;4977367;28;20018;-77
2022/10/21 00:41:05;;;;;;;0.00;0.00;;;6.10;99.90;;;;;;4976931;28;20026;-78
2022/10/21 00:43:36;;;;;;;0.00;0.00;;;6.10;99.90;;;;;;4976463;28;20035;-77
2022/10/21 00:46:05;;;;;;;0.32;0.32;;;6.10;99.90;;;;;;4976060;28;20043;-77
2022/10/21 00:48:44;;;;;;;0.10;0.10;;;6.10;99.90;;;;;;4974563;28;20026;-78
2022/10/21 00:51:17;;;;;;;0.10;0.10;;;6.10;99.90;;;;;;4974426;28;20023;-80
2022/10/21 00:53:46;;;;;;;0.00;0.00;;;6.00;99.90;;;;;;4975493;28;20035;-78
2022/10/21 00:56:23;;;;;;;0.10;0.10;;;5.90;99.90;;;;;;4975111;28;20045;-78
2022/10/21 00:58:49;;;;;;;0.00;0.00;;;;;;;;;;4967757;28;20026;-78
2022/10/21 01:01:15;;;;;;;0.00;0.00;;;5.90;99.90;;;;;;4977744;28;20050;-77
2022/10/21 01:03:40;;;;;;;0.15;0.15;;;5.90;99.90;;;;;;4993307;28;20368;-78
2022/10/21 01:06:09;;;;;;;0.03;0.03;;;5.90;99.90;;;;;;4994076;28;20006;-77
2022/10/21 01:08:36;;;;;;;0.38;0.38;;;5.90;99.90;;;;;;4992094;28;20042;-80
2022/10/21 01:11:13;;;;;;;0.10;0.10;;;5.80;99.90;;;;;;4995870;28;20023;-78
2022/10/21 01:14:17;;;;;;;0.10;0.10;;;5.80;99.90;;;;;;4994495;28;20035;-77
2022/10/21 01:16:55;;;;;;;0.00;0.00;;;5.70;99.90;;;;;;4995573;28;20107;-79
2022/10/21 01:19:55;;;;;;;0.00;0.00;;;5.70;99.90;;;;;;4994819;28;20015;-77
2022/10/21 01:22:26;;;;;;;0.00;0.00;;;5.60;99.90;;;;;;4993725;28;20003;-78
2022/10/21 01:25:56;;;;;;;0.10;0.10;;;5.50;99.90;;;;;;4994052;28;20003;-77
2022/10/21 01:28:31;;;;;;;0.10;0.10;;;5.50;99.90;;;;;;4917487;29;20068;-77
2022/10/21 01:31:20;;;;;;;0.10;0.10;;;5.50;99.90;;;;;;4915903;29;20036;-77
2022/10/21 01:34:19;;;;;;;0.10;0.10;;;5.40;99.90;;;;;;4841292;29;20073;-78
2022/10/21 01:37:15;;;;;;;0.10;0.10;;;5.40;99.90;;;;;;4824450;29;20082;-77
2022/10/21 01:39:56;;;;;;;0.10;0.10;;;5.40;99.90;;;;;;4822974;29;20030;-77
2022/10/21 01:42:46;;;;;;;0.08;0.08;;;5.40;99.90;;;;;;4808386;29;20046;-78
2022/10/21 01:45:22;;;;;;;0.10;0.10;;;5.40;99.90;;;;;;4824396;29;20080;-78
2022/10/21 01:48:43;;;;;;;0.10;0.10;;;5.40;99.90;;;;;;4824635;29;20047;-78
2022/10/21 01:51:09;;;;;;;0.10;0.10;;;5.40;99.90;;;;;;4808682;29;20110;-77
2022/10/21 01:53:49;;;;;;;0.10;0.10;;;5.40;99.90;;;;;;4824488;29;20038;-78
2022/10/21 01:56:42;;;;;;;0.10;0.10;;;5.40;99.90;;;;;;4823265;29;20310;-78
2022/10/21 01:59:13;;;;;;;0.10;0.10;;;5.40;99.90;;;;;;4824457;29;20039;-78
2022/10/21 02:02:00;;;;;;;0.10;0.10;;;5.40;99.90;;;;;;4822812;29;20070;-78
2022/10/21 02:04:27;;;;;;;0.10;0.10;;;5.40;99.90;;;;;;4825719;29;20057;-77
2022/10/21 02:07:15;;;;;;;0.10;0.10;;;5.40;99.90;;;;;;4825767;29;20110;-78
2022/10/21 02:09:41;;;;;;;0.10;0.10;;;5.50;99.90;;;;;;4848611;29;20066;-78
2022/10/21 02:12:14;;;;;;;0.10;0.10;;;5.50;99.90;;;;;;4899978;29;20073;-77
2022/10/21 02:15:09;;;;;;;17.20;16.27;;;5.50;99.90;;;;;;4990389;28;20107;-80
2022/10/21 02:17:45;;;;;;;0.10;0.10;;;5.50;99.90;;;;;;4993922;28;20031;-77
2022/10/21 02:20:21;;;;;;;0.00;0.00;;;5.50;99.90;;;;;;4994894;28;20015;-77
2022/10/21 02:22:51;;;;;;;0.70;0.68;;;5.40;99.90;;;;;;4995144;28;20042;-78
2022/10/21 02:25:22;;;;;;;0.10;0.10;;;5.40;99.90;;;;;;4995106;28;20035;-78
2022/10/21 02:27:48;;;;;;;0.10;0.10;;;5.40;99.90;;;;;;4995346;28;20054;-78
2022/10/21 02:30:14;;;;;;;0.10;0.10;;;5.40;99.90;;;;;;4995834;28;20023;-78
2022/10/21 02:32:53;;;;;;;0.10;0.10;;;5.40;99.90;;;;;;4996551;28;20031;-78
2022/10/21 02:36:08;;;;;;;0.00;0.00;;;5.30;99.90;;;;;;4994069;28;20011;-77
2022/10/21 02:38:56;;;;;;;0.00;0.00;;;5.20;99.90;;;;;;4879623;29;20037;-78
2022/10/21 02:41:23;;;;;;;0.10;0.10;;;5.20;99.90;;;;;;4896211;29;20021;-78
2022/10/21 02:44:05;;;;;;;0.10;0.10;;;5.20;99.90;;;;;;4896842;29;20029;-76
2022/10/21 02:46:44;;;;;;;0.10;0.10;;;5.20;99.90;;;;;;4883331;29;20032;-78
2022/10/21 02:49:10;;;;;;;0.00;0.00;;;5.20;99.90;;;;;;4895345;29;20599;-78
2022/10/21 02:51:42;;;;;;;0.05;0.05;;;5.10;99.90;;;;;;4897395;29;20029;-77
2022/10/21 02:54:07;;;;;;;0.10;0.10;;;5.10;99.90;;;;;;4896102;29;20037;-80
2022/10/21 02:56:56;;;;;;;0.10;0.10;;;5.10;99.90;;;;;;4897827;29;20053;-78
2022/10/21 02:59:21;;;;;;;0.10;0.10;;;5.10;99.90;;;;;;4890480;29;20043;-78
2022/10/21 03:01:47;;;;;;;0.10;0.10;;;5.00;99.90;;;;;;4880907;29;20086;-78
2022/10/21 03:04:39;;;;;;;0.10;0.10;;;5.00;99.90;;;;;;4877229;29;20044;-77
2022/10/21 03:07:05;;;;;;;0.10;0.10;;;6.10;99.90;;;;;;4865469;29;20050;-78
2022/10/21 03:09:31;;;;;;;0.20;0.20;;;4.90;99.90;;;;;;4856519;29;20029;-77
2022/10/21 03:11:58;;;;;;;0.10;0.10;;;4.90;99.90;;;;;;4856651;29;20038;-77
2022/10/21 03:14:25;;;;;;;0.10;0.10;;;6.30;99.90;;;;;;4887698;29;20035;-78
2022/10/21 03:16:54;;;;;;;0.00;0.00;;;4.80;99.90;;;;;;4915110;29;20634;-78
2022/10/21 03:19:20;;;;;;;0.10;0.10;;;4.80;99.90;;;;;;4930245;29;20095;-77
2022/10/21 03:21:48;;;;;;;0.10;0.10;;;4.80;99.90;;;;;;4930314;29;20118;-77
2022/10/21 03:24:16;;;;;;;0.10;0.10;;;4.80;99.90;;;;;;4913975;29;20070;-77
2022/10/21 03:26:42;;;;;;;0.10;0.10;;;4.80;99.90;;;;;;4930279;29;20298;-77
2022/10/21 03:29:08;;;;;;;0.03;0.03;;;4.80;99.90;;;;;;4934109;29;20015;-77
2022/10/21 03:31:57;;;;;;;0.10;0.10;;;5.00;99.90;;;;;;4951701;29;20525;-77
2022/10/21 03:34:24;;;;;;;0.10;0.10;;;4.90;99.90;;;;;;4952886;29;20044;-78
2022/10/21 03:36:50;;;;;;;0.10;0.10;;;4.80;99.90;;;;;;4952811;29;20044;-77
2022/10/21 03:39:45;;;;;;;2.55;2.45;;;4.80;99.90;;;;;;4934344;29;20035;-79
2022/10/21 03:42:16;;;;;;;0.10;0.10;;;4.70;99.90;;;;;;4953287;29;20032;-77
2022/10/21 03:44:51;;;;;;;0.10;0.10;;;4.70;99.90;;;;;;4981137;28;20039;-78
2022/10/21 03:47:17;;;;;;;0.10;0.10;;;;;;;;;;4991332;28;20030;-78
2022/10/21 03:49:46;;;;;;;0.10;0.10;;;4.60;99.90;;;;;;4990877;28;20041;-79
2022/10/21 03:52:16;;;;;;;0.10;0.10;;;4.50;99.90;;;;;;4991925;28;20035;-77
2022/10/21 03:54:45;;;;;;;0.10;0.10;;;4.40;99.90;;;;;;4989101;28;20041;-78
2022/10/21 03:57:11;;;;;;;0.10;0.10;;;4.40;99.90;;;;;;4991438;28;20035;-78
2022/10/21 03:59:37;;;;;;;0.03;0.03;;;4.30;99.90;;;;;;4993336;28;20090;-78
2022/10/21 04:02:26;;;;;;;0.10;0.10;;;4.30;99.90;;;;;;4991086;28;20014;-78
2022/10/21 04:04:51;;;;;;;0.10;0.10;;;4.30;99.90;;;;;;4992465;28;20018;-78
2022/10/21 04:07:17;;;;;;;0.17;0.17;;;4.20;99.90;;;;;;4992845;28;20027;-77
2022/10/21 04:09:43;;;;;;;0.10;0.10;;;4.30;99.90;;;;;;4988262;28;20031;-82
2022/10/21 04:12:11;;;;;;;0.10;0.10;;;4.30;99.90;;;;;;4988888;28;20067;-78
2022/10/21 04:14:37;;;;;;;0.08;0.08;;;4.20;99.90;;;;;;4984469;28;20006;-78
2022/10/21 04:17:05;;;;;;;0.10;0.10;;;4.20;99.90;;;;;;4973974;28;20033;-78
2022/10/21 04:19:31;;;;;;;0.10;0.10;;;4.20;99.90;;;;;;4977427;28;20042;-78
2022/10/21 04:21:58;;;;;;;0.10;0.10;;;4.20;99.90;;;;;;4981446;28;20027;-77
2022/10/21 04:24:45;;;;;;;0.10;0.10;;;4.20;99.90;;;;;;4981787;28;20030;-78
2022/10/21 04:27:11;;;;;;;0.10;0.10;;;4.20;99.90;;;;;;4980040;28;20038;-77
2022/10/21 04:29:36;;;;;;;0.10;0.10;;;4.20;99.90;;;;;;4980460;28;20101;-78
2022/10/21 04:32:02;;;;;;;0.10;0.10;;;4.20;99.90;;;;;;4958050;28;20073;-77
2022/10/21 04:34:30;;;;;;;0.10;0.10;;;4.20;99.90;;;;;;4978527;28;20502;-77
2022/10/21 04:36:56;;;;;;;0.10;0.10;;;4.20;99.90;;;;;;4960903;28;20120;-77
2022/10/21 04:39:28;;;;;;;0.10;0.10;;;4.10;99.90;;;;;;4977732;28;20055;-77
2022/10/21 04:41:54;;;;;;;143.98;24.40;;;4.20;99.90;;;;;;4978169;28;20038;-77
2022/10/21 04:44:20;;;;;;;0.10;0.10;;;4.20;99.90;;;;;;4979008;28;20026;-77
2022/10/21 04:46:46;;;;;;;0.10;0.10;;;4.20;99.90;;;;;;4984907;28;20264;-76
2022/10/21 04:49:15;;;;;;;0.70;0.70;;;4.30;99.90;;;;;;4986220;28;20038;-77
2022/10/21 04:51:43;;;;;;;0.43;0.43;;;4.30;99.90;;;;;;4982334;28;20034;-78
2022/10/21 04:54:08;;;;;;;0.10;0.10;;;4.40;99.90;;;;;;4979899;28;20324;-77
2022/10/21 04:56:35;;;;;;;0.10;0.10;;;4.30;99.90;;;;;;4979855;28;20391;-77
2022/10/21 04:59:02;;;;;;;0.10;0.10;;;4.40;99.90;;;;;;4978523;28;20415;-77
2022/10/21 05:01:28;;;;;;;0.10;0.10;;;4.50;99.90;;;;;;4985226;28;20031;-77
2022/10/21 05:03:55;;;;;;;0.10;0.10;;;4.50;99.90;;;;;;4983345;28;20078;-78
2022/10/21 05:06:21;;;;;;;0.10;0.10;;;4.60;99.90;;;;;;4981593;28;20031;-77
2022/10/21 05:08:48;;;;;;;0.28;0.28;;;4.70;99.90;;;;;;4977902;28;20081;-77
2022/10/21 05:11:13;;;;;;;0.08;0.08;;;4.70;99.90;;;;;;4974812;28;20532;-77
2022/10/21 05:13:42;;;;;;;0.10;0.10;;;4.70;99.90;;;;;;4977786;28;20292;-77
2022/10/21 05:16:08;;;;;;;0.10;0.10;;;4.70;99.90;;;;;;4979258;28;20077;-78
2022/10/21 05:18:33;;;;;;;0.15;0.15;;;4.60;99.90;;;;;;4980001;28;20023;-78
2022/10/21 05:21:00;;;;;;;0.10;0.10;;;4.60;99.90;;;;;;4978330;28;20304;-77
2022/10/21 05:23:27;;;;;;;0.20;0.20;;;4.50;99.90;;;;;;4980411;28;20458;-77
2022/10/21 05:25:53;;;;;;;0.00;0.00;;;4.50;99.90;;;;;;4962472;28;20034;-77
2022/10/21 05:28:20;;;;;;;0.10;0.10;;;4.40;99.90;;;;;;4980250;28;20075;-77
2022/10/21 05:30:51;;;;;;;0.10;0.10;;;4.40;99.90;;;;;;4973639;28;20726;-77
2022/10/21 05:33:17;;;;;;;0.10;0.10;;;4.40;99.90;;;;;;4969319;28;20117;-77
2022/10/21 05:35:43;;;;;;;0.10;0.10;;;4.40;99.90;;;;;;4970040;28;20027;-77
2022/10/21 05:38:09;;;;;;;0.10;0.10;;;4.40;99.90;;;;;;4969889;28;20034;-77
2022/10/21 05:40:35;;;;;;;0.10;0.10;;;4.50;99.90;;;;;;4968905;28;20384;-78
2022/10/21 05:43:05;;;;;;;0.10;0.10;;;4.50;99.90;;;;;;4968822;28;20150;-77
2022/10/21 05:45:31;;;;;;;0.10;0.10;;;4.60;99.90;;;;;;4976238;28;20019;-78
2022/10/21 05:47:57;;;;;;;0.10;0.10;;;4.60;99.90;;;;;;4980977;28;20383;-78
2022/10/21 05:50:22;;;;;;;0.10;0.10;;;4.60;99.90;;;;;;4981105;28;20070;-77
2022/10/21 05:52:48;;;;;;;0.10;0.10;;;4.60;99.90;;;;;;4982672;28;20027;-77
2022/10/21 05:55:14;;;;;;;0.10;0.10;;;6.60;99.90;;;;;;4981554;28;20035;-77
2022/10/21 05:57:40;;;;;;;0.20;0.20;;;4.80;99.90;;;;;;4978953;28;20028;-77
2022/10/21 06:00:16;;;;;;;0.20;0.20;;;4.90;99.90;;;;;;4981072;28;20033;-77
2022/10/21 06:02:43;;;;;;;0.10;0.10;;;5.00;99.90;;;;;;4981391;28;20622;-77
2022/10/21 06:05:10;;;;;;;0.10;0.10;;;5.10;99.90;;;;;;4980229;28;20031;-77
2022/10/21 06:07:39;;;;;;;0.10;0.10;;;5.20;99.90;;;;;;4978123;28;20521;-77
2022/10/21 06:10:08;;;;;;;0.03;0.03;;;5.30;99.90;;;;;;4977777;28;20344;-77
2022/10/21 06:12:36;;;;;;;0.00;0.00;;;5.50;99.90;;;;;;4978829;28;20038;-78
2022/10/21 06:15:02;;;;;;;0.05;0.05;;;5.70;99.90;;;;;;4961690;28;20596;-77
2022/10/21 06:17:28;;;;;;;0.10;0.10;;;5.70;99.90;;;;;;4973496;28;20027;-77
2022/10/21 06:19:55;;;;;;;0.00;0.00;;;5.90;99.90;;;;;;4975180;28;20095;-77
2022/10/21 06:22:23;;;;;;;0.10;0.10;;;6.00;99.90;;;;;;4978425;28;20057;-77
2022/10/21 06:24:51;;;;;;;0.00;0.00;;;6.20;99.90;;;;;;4976267;28;20549;-77
2022/10/21 06:27:18;;;;;;;0.10;0.10;;;6.30;99.90;;;;;;4978617;28;20087;-77
2022/10/21 06:29:44;;;;;;;0.08;0.08;;;6.50;99.90;;;;;;4979885;28;20039;-77
2022/10/21 06:32:11;;;;;;;0.00;0.00;;;6.60;99.90;;;;;;4960025;28;20514;-76
2022/10/21 06:34:37;;;;;;;0.10;0.10;;;6.80;99.90;;;;;;4972812;28;20027;-77
2022/10/21 06:37:04;;;;;;;0.95;0.95;;;6.90;99.90;;;;;;4959031;28;20351;-77
2022/10/21 06:39:30;;;;;;;0.00;0.00;;;7.00;99.90;;;;;;4977053;28;20503;-76
2022/10/21 06:41:59;;;;;;;0.20;0.20;;;7.10;99.90;;;;;;4975435;28;20019;-76
2022/10/21 06:44:24;;;;;;;0.00;0.00;;;7.00;99.90;;;;;;4978224;28;20030;-78
2022/10/21 06:46:50;;;;;;;0.00;0.00;;;7.10;99.90;;;;;;4977392;28;20022;-77
2022/10/21 06:49:17;;;;;;;0.20;0.20;;;7.10;99.90;;;;;;4975923;28;20030;-77
2022/10/21 06:51:43;;;;;;;0.00;0.00;;;7.20;99.90;;;;;;4975661;28;20478;-77
2022/10/21 06:54:09;;;;;;;0.00;0.00;;;7.40;99.90;;;;;;4981518;28;20061;-77
2022/10/21 06:56:34;;;;;;;0.10;0.10;;;7.60;99.90;;;;;;4979044;28;20019;-77
2022/10/21 06:59:00;;;;;;;0.38;0.38;;;7.60;99.90;;;;;;4981501;28;20030;-78
2022/10/21 07:01:31;;;;;;;0.00;0.00;;;7.70;99.90;;;;;;4979770;28;20034;-77
2022/10/21 07:03:58;;;;;;;0.10;0.10;;;7.70;99.90;;;;;;5005493;23;20061;-77
2022/10/21 07:06:24;;;;;;;0.08;0.08;;;7.80;99.90;;;;;;5002710;28;20038;-77
2022/10/21 07:08:50;;;;;;;0.10;0.10;;;7.90;99.90;;;;;;4985602;28;20217;-77
2022/10/21 07:11:16;;;;;;;52.35;49.50;;;8.00;99.90;;;;;;5001474;28;20118;-77
2022/10/21 07:13:41;;;;;;;0.10;0.10;;;8.10;99.90;;;;;;4983885;28;20030;-77
2022/10/21 07:16:18;;;;;;;0.00;0.00;;;8.10;99.90;;;;;;4996426;28;20108;-77
2022/10/21 07:18:44;;;;;;;0.10;0.10;;;8.00;99.90;;;;;;5000925;28;20441;-77
2022/10/21 07:21:16;;;;;;;0.00;0.00;;;8.20;99.90;;;;;;5001409;28;20359;-77
2022/10/21 07:23:43;;;;;;;0.15;0.15;;;8.10;99.90;;;;;;4997839;28;20029;-78
2022/10/21 07:26:10;;;;;;;0.00;0.00;;;8.10;99.90;;;;;;4998068;28;20367;-77
2022/10/21 07:28:36;;;;;;;1.95;1.85;;;8.20;99.90;;;;;;4979685;28;20186;-77
2022/10/21 07:31:04;;;;;;;0.40;0.40;;;8.30;99.90;;;;;;4957723;28;20054;-77
2022/10/21 07:33:33;;;;;;;0.10;0.10;;;8.30;99.90;;;;;;4969729;28;20031;-77
2022/10/21 07:36:13;;;;;;;0.10;0.10;;;8.40;99.90;;;;;;4968240;28;20042;-78
2022/10/21 07:38:42;;;;;;;32.15;5.13;;;8.50;99.90;;;;;;4969216;28;20529;-77
2022/10/21 07:41:14;;;;;;;0.32;0.32;;;8.70;99.90;;;;;;4950603;28;20065;-77
2022/10/21 07:43:41;;;;;;;0.03;0.03;;;8.80;99.90;;;;;;4951050;28;20078;-77
2022/10/21 07:46:09;;;;;;;0.00;0.00;;;8.90;99.90;;;;;;4971749;28;20030;-77
2022/10/21 07:48:38;;;;;;;0.03;0.03;;;8.90;99.90;;;;;;4978907;28;20097;-77
2022/10/21 07:51:08;;;;;;;0.10;0.10;;;9.10;99.90;;;;;;4980343;28;20027;-79
2022/10/21 07:53:34;;;;;;;0.10;0.10;;;9.20;99.90;;;;;;4977526;28;20069;-77
2022/10/21 07:56:06;;;;;;;0.10;0.10;;;9.40;99.90;;;;;;4978461;28;20003;-77
2022/10/21 07:58:38;;;;;;;0.20;0.20;;;9.20;99.90;;;;;;4979198;28;20079;-78
2022/10/21 08:01:06;;;;;;;4.35;4.15;;;10.00;99.90;;;;;;4957398;28;20398;-77
2022/10/21 08:03:33;;;;;;;0.25;0.25;;;6.90;99.90;;;;;;4965924;28;20097;-77
2022/10/21 08:05:59;;;;;;;0.10;0.10;;;9.90;99.90;;;;;;4964176;28;20038;-77
2022/10/21 08:08:26;;;;;;;1.10;1.10;;;10.10;99.90;;;;;;4963460;28;20085;-78
2022/10/21 08:10:53;;;;;;;4.15;3.92;;;10.30;99.90;;;;;;4963209;28;20022;-77
2022/10/21 08:13:18;;;;;;;0.43;0.43;;;10.50;99.90;;;;;;4963734;28;20244;-77
2022/10/21 08:15:47;;;;;;;1.42;1.42;;;10.70;99.90;;;;;;4945098;28;20383;-78
2022/10/21 08:18:13;;;;;;;1.73;1.65;;;10.90;99.90;;;;;;4944511;28;20030;-78
2022/10/21 08:20:40;;;;;;;0.10;0.10;;;10.90;99.90;;;;;;4968487;28;20212;-78
2022/10/21 08:23:07;;;;;;;0.13;0.13;;;10.70;99.90;;;;;;4978247;28;20228;-77
2022/10/21 08:25:33;;;;;;;0.10;0.10;;;10.70;99.90;;;;;;4955645;28;20051;-77
2022/10/21 08:27:59;;;;;;;0.80;0.80;;;10.70;99.90;;;;;;4975920;28;20022;-78
2022/10/21 08:30:28;;;;;;;2.65;2.55;;;10.80;99.90;;;;;;4975094;28;20465;-77
2022/10/21 08:32:55;;;;;;;0.10;0.10;;;10.80;99.90;;;;;;4975904;28;20019;-79
2022/10/21 08:35:25;;;;;;;0.00;0.00;;;11.00;99.90;;;;;;4976355;28;20023;-77
2022/10/21 08:37:50;;;;;;;2.15;2.05;;;11.00;99.90;;;;;;4976995;28;20035;-78
2022/10/21 08:40:17;;;;;;;1.90;1.83;;;11.50;99.90;;;;;;4973441;28;20228;-79
2022/10/21 08:42:45;;;;;;;1.33;1.30;;;11.60;99.90;;;;;;4955732;28;20521;-79
2022/10/21 08:45:47;;;;;;;0.17;0.17;;;11.70;99.90;;;;;;4968431;28;20022;-79
2022/10/21 08:48:33;;;;;;;0.20;0.20;;;11.70;99.90;;;;;;4971470;28;20014;-80
2022/10/21 08:51:00;;;;;;;0.10;0.10;;;11.90;99.90;;;;;;4965845;28;20126;-80
2022/10/21 08:53:45;;;;;;;0.20;0.20;;;11.90;99.90;;;;;;4942266;28;20238;-80
2022/10/21 08:56:14;;;;;;;0.55;0.55;;;12.10;99.90;;;;;;4960359;28;20248;-82
2022/10/21 08:58:40;;;;;;;0.10;0.10;;;12.30;99.90;;;;;;4964625;28;20027;-78
2022/10/21 09:01:25;;;;;;;1.00;1.00;;;12.40;99.90;;;;;;4947611;28;20412;-89
2022/10/21 09:04:07;;;;;;;2.38;2.28;;;12.50;99.70;;;;;;4963761;28;20557;-84
2022/10/21 09:06:54;;;;;;;0.20;0.20;;;12.60;98.90;;;;;;4965128;28;20509;-86
2022/10/21 09:09:49;;;;;;;0.20;0.20;;;13.00;99.10;;;;;;4974320;28;20023;-84
2022/10/21 09:12:35;;;;;;;1.48;1.42;;;13.20;98.20;;;;;;4957419;28;20046;-84
2022/10/21 09:15:03;;;;;;;1.48;1.40;;;13.30;98.00;;;;;;4954831;28;20034;-81
2022/10/21 09:17:40;;;;;;;0.20;0.20;;;13.50;97.20;;;;;;4967329;28;20037;-78
2022/10/21 09:20:33;;;;;;;4.97;4.75;;;13.40;96.90;;;;;;4965726;28;20466;-77
2022/10/21 09:23:07;;;;;;;1.77;1.75;;;13.60;96.90;;;;;;4962395;28;20035;-77
2022/10/21 09:25:39;;;;;;;0.20;0.20;;;13.80;96.80;;;;;;4963299;28;20077;-81
2022/10/21 09:28:13;;;;;;;0.40;0.40;;;13.70;96.10;;;;;;4962572;28;20269;-77
2022/10/21 09:30:41;;;;;;;0.25;0.25;;;15.00;96.70;;;;;;4962494;28;20015;-77
2022/10/21 09:33:30;;;;;;;4.68;4.47;;;13.90;95.90;;;;;;4961705;28;20383;-77
2022/10/21 09:36:18;;;;;;;0.68;0.68;;;13.80;95.80;;;;;;4944875;28;20232;-82
2022/10/21 09:38:59;;;;;;;1.10;1.10;;;13.90;95.90;;;;;;4944307;28;20143;-79
2022/10/21 09:41:31;;;;;;;0.32;0.32;;;14.10;95.90;;;;;;4944980;28;20233;-84
2022/10/21 09:43:57;;;;;;;0.20;0.20;;;14.50;95.30;;;;;;4961819;28;20034;-75
2022/10/21 09:46:23;;;;;;;0.43;0.43;;;14.60;95.00;;;;;;4961943;28;20389;-79
2022/10/21 09:48:53;;;;;;;0.45;0.45;;;15.00;94.50;;;;;;4944415;28;20506;-77
2022/10/21 09:51:27;;;;;;;4.93;4.47;;;15.20;94.30;;;;;;4944366;28;20216;-78
2022/10/21 09:54:01;;;;;;;0.77;0.77;;;15.50;93.60;;;;;;4961925;28;20288;-78
2022/10/21 09:56:34;;;;;;;0.20;0.20;;;15.80;92.70;;;;;;4962299;28;20062;-78
2022/10/21 09:59:10;;;;;;;0.10;0.10;;;15.90;91.90;;;;;;4964762;28;20038;-80
2022/10/21 10:01:37;;;;;;;2.40;2.20;;;16.00;91.70;;;;;;4962811;28;20336;-79
2022/10/21 10:04:33;;;;;;;0.82;0.82;;;16.20;91.40;;;;;;4961814;28;20550;-87
2022/10/21 10:07:39;;;;;;;0.35;0.35;;;16.40;91.40;;;;;;4961938;28;20027;-86
2022/10/21 10:10:31;;;;;;;0.15;0.15;;;16.40;90.90;;;;;;4882733;29;20037;-79
2022/10/21 10:12:58;;;;;;;0.20;0.20;;;16.50;90.20;;;;;;4882904;29;20071;-79
2022/10/21 10:15:33;;;;;;;3.92;3.22;;;16.50;90.30;;;;;;4883231;29;20315;-78
2022/10/21 10:17:59;;;;;;;4.93;4.72;;;16.40;89.70;;;;;;4883299;29;20378;-80
2022/10/21 10:20:25;;;;;;;1.45;1.35;;;16.20;89.80;;;;;;4884834;29;20039;-87
2022/10/21 10:22:59;;;;;;;0.10;0.10;;;16.50;89.70;;;;;;4884997;29;20112;-82
2022/10/21 10:25:32;;;;;;;0.25;0.25;;;16.70;89.90;;;;;;4884637;29;20217;-85
2022/10/21 10:28:15;;;;;;;2.17;2.03;;;17.00;88.40;;;;;;4867441;29;20076;-86
2022/10/21 10:30:41;;;;;;;0.80;0.80;;;17.20;86.70;;;;;;4882606;29;20033;-83
2022/10/21 10:33:15;;;;;;;2.28;2.08;;;17.20;85.90;;;;;;4882586;29;20255;-81
2022/10/21 10:35:53;;;;;;;3.65;3.45;;;17.50;85.40;;;;;;4883699;29;20047;-86
2022/10/21 10:38:49;;;;;;;1.05;1.05;;;17.50;83.90;;;;;;4882472;29;20029;-78
2022/10/21 10:41:16;;;;;;;1.02;0.88;;;17.50;84.80;;;;;;4933973;28;20232;-86
2022/10/21 10:43:54;;;;;;;5.38;3.72;;;17.50;84.10;;;;;;4961274;28;20055;-80
2022/10/21 10:46:25;;;;;;;1.75;1.65;;;17.40;84.40;;;;;;4961073;28;20019;-79
2022/10/21 10:48:53;;;;;;;0.20;0.20;;;17.80;83.70;;;;;;4961094;28;20510;-77
2022/10/21 10:51:24;;;;;;;3.15;2.95;;;17.90;82.50;;;;;;4960882;28;20038;-78
2022/10/21 10:54:28;;;;;;;0.20;0.20;;;17.70;83.60;;;;;;4959465;28;20422;-91
2022/10/21 10:57:09;;;;;;;;;;;17.90;83.10;;;;;;4960556;28;20431;-80
2022/10/21 10:59:43;;;;;;;0.10;0.10;;;18.10;82.20;;;;;;4962450;28;20092;-90
2022/10/21 11:02:09;;;;;;;9.82;9.18;;;18.20;81.40;;;;;;4960534;28;20446;-79
2022/10/21 11:04:45;;;;;;;2.28;2.08;;;18.50;81.80;;;;;;4959240;28;20089;-82
2022/10/21 11:07:36;;;;;;;0.40;0.40;;;18.60;79.40;;;;;;4960134;28;20026;-79
2022/10/21 11:10:43;;;;;;;3.38;3.17;;;18.80;80.60;;;;;;4960358;28;20525;-88
2022/10/21 11:13:13;;;;;;;0.20;0.20;;;19.20;77.90;;;;;;4960483;28;20059;-78
2022/10/21 11:16:10;;;;;;;0.65;0.65;;;19.50;77.40;;;;;;4960311;28;20577;-91
2022/10/21 11:18:38;;;;;;;0.98;0.98;;;19.30;78.10;;;;;;4960595;28;20406;-79
2022/10/21 11:21:13;;;;;;;0.30;0.30;;;19.20;76.70;;;;;;4960362;28;20038;-79
2022/10/21 11:23:54;;;;;;;0.90;0.68;;;17.90;77.00;;;;;;4959657;28;20509;-82
2022/10/21 11:26:53;;;;;;;1.27;1.17;;;19.90;73.30;;;;;;4960019;28;20031;-78
2022/10/21 11:29:59;;;;;;;1.13;1.05;;;19.90;73.60;;;;;;4959810;28;20209;-79
2022/10/21 11:32:46;;;;;;;6.65;6.25;;;19.90;72.80;;;;;;4959228;28;20138;-79
2022/10/21 11:35:40;;;;;;;3.65;3.45;;;20.00;73.00;;;;;;4958348;28;20053;-90
2022/10/21 11:38:43;;;;;;;0.20;0.20;;;20.00;72.20;;;;;;4960690;28;20057;-81
2022/10/21 11:41:29;;;;;;;1.48;1.48;;;19.80;72.10;;;;;;4959678;28;20027;-78
2022/10/21 11:43:58;;;;;;;1.20;0.95;;;19.70;72.50;;;;;;4958268;28;20042;-80
2022/10/21 11:46:44;;;;;;;0.22;0.22;;;19.80;71.90;;;;;;4959927;28;20022;-78
2022/10/21 11:49:28;;;;;;;4.20;3.28;;;19.60;71.90;;;;;;4959678;28;20078;-82
2022/10/21 11:52:31;;;;;;;0.45;0.45;;;19.40;72.30;;;;;;4959519;28;20027;-82
2022/10/21 11:55:23;;;;;;;4.22;2.83;;;19.40;73.40;;;;;;4959554;28;20332;-82
2022/10/21 11:58:23;;;;;;;0.10;0.10;;;19.50;73.00;;;;;;4959829;28;20030;-85
2022/10/21 12:01:13;;;;;;;1.05;0.98;;;19.60;72.50;;;;;;4959765;28;20526;-81
2022/10/21 12:04:18;;;;;;;0.40;0.40;;;19.80;72.20;;;;;;4880000;29;20059;-81
2022/10/21 12:06:49;;;;;;;0.40;0.40;;;19.80;72.00;;;;;;4880830;29;20032;-81
2022/10/21 12:09:29;;;;;;;3.75;3.45;;;19.80;72.20;;;;;;4880819;29;20100;-85
2022/10/21 12:12:12;;;;;;;1.75;1.65;;;19.80;72.40;;;;;;4880928;29;20025;-78
2022/10/21 12:14:52;;;;;;;0.38;0.38;;;19.80;72.40;;;;;;4881009;29;20048;-79
2022/10/21 12:17:20;;;;;;;0.10;0.10;;;19.50;71.50;;;;;;4880950;29;20033;-82
2022/10/21 12:19:56;;;;;;;2.67;2.47;;;19.60;71.90;;;;;;4881940;29;20085;-86
2022/10/21 12:22:24;;;;;;;0.30;0.30;;;19.60;72.00;;;;;;4881889;29;20037;-88
2022/10/21 12:25:11;;;;;;;0.50;0.50;;;19.50;72.50;;;;;;4881847;29;20032;-85
2022/10/21 12:27:49;;;;;;;0.40;0.40;;;19.50;72.80;;;;;;4893764;29;20037;-82
2022/10/21 12:30:21;;;;;;;0.52;0.52;;;19.50;72.50;;;;;;4879936;29;20024;-85
2022/10/21 12:33:24;;;;;;;1.45;0.75;;;19.50;72.70;;;;;;4895372;29;20100;-80
2022/10/21 12:35:53;;;;;;;2.60;2.40;;;19.50;72.40;;;;;;4896102;29;20029;-83
2022/10/21 12:38:48;;;;;;;2.53;1.80;;;19.60;72.70;;;;;;4876776;29;20197;-91
2022/10/21 12:41:22;;;;;;;1.38;1.30;;;19.60;72.50;;;;;;4924955;28;20098;-78
2022/10/21 12:44:22;;;;;;;0.70;0.70;;;19.60;72.70;;;;;;4969084;28;20202;-79
2022/10/21 12:46:56;;;;;;;0.10;0.10;;;19.70;72.40;;;;;;4971099;28;20414;-79
2022/10/21 12:49:32;;;;;;;4.03;3.72;;;19.70;72.00;;;;;;4969086;28;20023;-83
2022/10/21 12:52:07;;;;;;;0.20;0.20;;;19.70;71.40;;;;;;4946457;28;20027;-78
2022/10/21 12:54:50;;;;;;;1.25;1.15;;;19.70;71.40;;;;;;4964853;28;20109;-79
2022/10/21 12:57:31;;;;;;;9.93;2.50;;;19.70;71.50;;;;;;4947414;28;20058;-80
2022/10/21 13:00:35;;;;;;;6.55;3.03;;;19.60;71.90;;;;;;4946436;28;20027;-79
2022/10/21 13:03:13;;;;;;;0.63;0.63;;;19.50;71.90;;;;;;4963466;28;20521;-79
2022/10/21 13:05:38;;;;;;;2.15;2.05;;;19.50;72.60;;;;;;4964111;28;20019;-79
2022/10/21 13:08:26;;;;;;;2.95;1.88;;;19.50;72.80;;;;;;4964244;28;20030;-78
2022/10/21 13:11:04;;;;;;;5.20;4.78;;;19.40;72.90;;;;;;4962073;28;20031;-81
2022/10/21 13:13:41;;;;;;;2.53;1.88;;;19.20;73.20;;;;;;4964156;28;20458;-81
2022/10/21 13:16:19;;;;;;;0.70;0.70;;;19.20;73.20;;;;;;4963041;28;20022;-79
2022/10/21 13:19:23;;;;;;;2.78;2.67;;;19.10;73.60;;;;;;4961320;28;20232;-78
2022/10/21 13:22:01;;;;;;;1.58;1.48;;;19.00;73.90;;;;;;4948054;28;20291;-79
2022/10/21 13:24:33;;;;;;;0.85;0.85;;;18.90;74.40;;;;;;4963017;28;20031;-84
2022/10/21 13:27:20;;;;;;;0.73;0.73;;;18.90;74.20;;;;;;4963084;28;20015;-82
2022/10/21 13:29:48;;;;;;;0.30;0.30;;;18.90;74.40;;;;;;4962438;28;20301;-78